createdAt,value
2023-01-25T00:00:50.059Z,0.00
2023-01-25T00:01:50.099Z,0.00
2023-01-25T00:02:50.144Z,0.00
2023-01-25T00:03:50.022Z,0.00
2023-01-25T00:04:50.000Z,0.00
2023-01-25T00:05:49.983Z,0.00
2023-01-25T00:06:49.997Z,0.00
2023-01-25T00:07:49.996Z,0.00
2023-01-25T00:08:49.967Z,0.00
2023-01-25T00:09:49.952Z,0.00
2023-01-25T00:10:49.935Z,0.00
2023-01-25T00:11:49.938Z,0.00
2023-01-25T00:12:49.924Z,0.00
2023-01-25T00:13:55.921Z,0.00
2023-01-25T00:14:49.908Z,0.00
2023-01-25T00:15:50.092Z,0.00
2023-01-25T00:16:49.967Z,0.00
2023-01-25T00:17:49.864Z,0.00
2023-01-25T00:18:49.896Z,0.00
2023-01-25T00:19:49.849Z,0.00
2023-01-25T00:20:49.841Z,0.00
2023-01-25T00:21:49.822Z,0.00
2023-01-25T00:22:49.821Z,0.00
2023-01-25T00:23:49.879Z,0.00
2023-01-25T00:24:49.801Z,0.00
2023-01-25T00:25:49.789Z,0.00
2023-01-25T00:26:51.850Z,0.00
2023-01-25T00:27:49.781Z,0.00
2023-01-25T00:28:49.751Z,0.00
2023-01-25T00:29:49.748Z,0.00
2023-01-25T00:30:49.742Z,0.00
2023-01-25T00:31:49.879Z,0.00
2023-01-25T00:32:50.046Z,0.00
2023-01-25T00:33:49.703Z,0.00
2023-01-25T00:34:49.695Z,0.00
2023-01-25T00:35:49.683Z,0.00
2023-01-25T00:36:49.681Z,0.00
2023-01-25T00:37:49.660Z,0.00
2023-01-25T00:38:49.646Z,0.00
2023-01-25T00:39:49.709Z,0.00
2023-01-25T00:40:49.635Z,0.00
2023-01-25T00:41:49.634Z,0.00
2023-01-25T00:42:49.819Z,0.00
2023-01-25T00:43:49.600Z,0.00
2023-01-25T00:44:49.830Z,0.00
2023-01-25T00:45:49.640Z,0.00
2023-01-25T00:46:49.590Z,0.00
2023-01-25T00:47:49.562Z,0.00
2023-01-25T00:48:49.570Z,0.00
2023-01-25T00:49:49.569Z,0.00
2023-01-25T00:50:55.537Z,0.00
2023-01-25T00:51:49.524Z,0.00
2023-01-25T00:52:49.512Z,0.00
2023-01-25T00:53:49.506Z,0.00
2023-01-25T00:54:49.493Z,0.00
2023-01-25T00:55:49.563Z,0.00
2023-01-25T00:56:49.470Z,0.00
2023-01-25T00:57:49.472Z,0.00
2023-01-25T00:58:49.451Z,0.00
2023-01-25T00:59:49.447Z,0.00
2023-01-25T01:00:49.480Z,0.00
2023-01-25T01:01:49.414Z,0.00
2023-01-25T01:02:49.406Z,0.00
2023-01-25T01:03:49.602Z,0.00
2023-01-25T01:04:49.472Z,0.00
2023-01-25T01:05:49.377Z,0.00
2023-01-25T01:06:49.359Z,0.00
2023-01-25T01:07:49.360Z,0.00
2023-01-25T01:08:49.353Z,0.00
2023-01-25T01:09:49.327Z,0.00
2023-01-25T01:10:49.326Z,0.00
2023-01-25T01:11:49.340Z,0.00
2023-01-25T01:12:49.510Z,0.00
2023-01-25T01:13:55.307Z,0.00
2023-01-25T01:14:49.278Z,0.00
2023-01-25T01:15:49.270Z,0.00
2023-01-25T01:17:30.080Z,0.00
2023-01-25T01:18:30.071Z,0.00
2023-01-25T01:19:30.058Z,0.00
2023-01-25T01:20:30.065Z,0.00
2023-01-25T01:21:30.064Z,0.00
2023-01-25T01:22:30.025Z,0.00
2023-01-25T01:23:30.040Z,0.00
2023-01-25T01:24:30.273Z,0.00
2023-01-25T01:25:29.998Z,0.00
2023-01-25T01:26:29.996Z,0.00
2023-01-25T01:27:30.003Z,0.00
2023-01-25T01:28:29.973Z,0.00
2023-01-25T01:29:30.005Z,0.00
2023-01-25T01:30:29.942Z,0.00
2023-01-25T01:31:30.059Z,0.00
2023-01-25T01:32:30.294Z,0.00
2023-01-25T01:33:29.928Z,0.00
2023-01-25T01:34:29.902Z,0.00
2023-01-25T01:35:29.902Z,0.00
2023-01-25T01:36:29.901Z,0.00
2023-01-25T01:37:29.884Z,0.00
2023-01-25T01:38:29.871Z,0.00
2023-01-25T01:39:29.865Z,0.00
2023-01-25T01:40:29.850Z,0.00
2023-01-25T01:41:29.838Z,0.00
2023-01-25T01:42:29.823Z,0.00
2023-01-25T01:43:29.854Z,0.00
2023-01-25T01:44:29.820Z,0.00
2023-01-25T01:45:29.867Z,0.00
2023-01-25T01:46:29.797Z,0.00
2023-01-25T01:47:29.988Z,0.00
2023-01-25T01:48:29.767Z,0.00
2023-01-25T01:49:29.763Z,0.00
2023-01-25T01:50:29.743Z,0.00
2023-01-25T01:51:29.746Z,0.00
2023-01-25T01:52:35.741Z,0.00
2023-01-25T01:53:29.745Z,0.00
2023-01-25T01:54:29.740Z,0.00
2023-01-25T01:55:29.723Z,0.00
2023-01-25T01:56:29.734Z,0.00
2023-01-25T01:57:29.677Z,0.00
2023-01-25T01:58:29.677Z,0.00
2023-01-25T01:59:29.681Z,0.00
2023-01-25T02:00:29.639Z,0.00
2023-01-25T02:01:35.722Z,0.00
2023-01-25T02:02:29.693Z,0.00
2023-01-25T02:03:29.623Z,0.00
2023-01-25T02:04:35.613Z,0.00
2023-01-25T02:05:29.598Z,0.00
2023-01-25T02:06:29.586Z,0.00
2023-01-25T02:07:29.589Z,0.00
2023-01-25T02:08:29.562Z,0.00
2023-01-25T02:09:29.605Z,0.00
2023-01-25T02:11:06.321Z,0.00
2023-01-25T02:12:06.337Z,0.00
2023-01-25T02:13:06.274Z,0.00
2023-01-25T02:14:06.274Z,0.00
2023-01-25T02:15:12.300Z,0.00
2023-01-25T02:16:06.332Z,0.00
2023-01-25T02:17:06.247Z,0.00
2023-01-25T02:18:06.259Z,0.00
2023-01-25T02:19:06.218Z,0.00
2023-01-25T02:20:06.206Z,0.00
2023-01-25T02:21:42.949Z,0.00
2023-01-25T02:22:42.947Z,0.00
2023-01-25T02:23:42.933Z,0.00
2023-01-25T02:24:42.920Z,0.00
2023-01-25T02:25:42.907Z,0.00
2023-01-25T02:26:42.963Z,0.00
2023-01-25T02:27:42.899Z,0.00
2023-01-25T02:28:42.889Z,0.00
2023-01-25T02:29:42.891Z,0.00
2023-01-25T02:30:42.957Z,0.00
2023-01-25T02:31:42.919Z,0.00
2023-01-25T02:32:42.842Z,0.00
2023-01-25T02:33:42.830Z,0.00
2023-01-25T02:34:42.827Z,0.00
2023-01-25T02:35:42.811Z,0.00
2023-01-25T02:36:42.827Z,0.00
2023-01-25T02:37:42.800Z,0.00
2023-01-25T02:38:48.795Z,0.00
2023-01-25T02:39:42.775Z,0.00
2023-01-25T02:40:42.764Z,0.00
2023-01-25T02:41:42.776Z,0.00
2023-01-25T02:42:42.962Z,0.00
2023-01-25T02:43:42.741Z,0.00
2023-01-25T02:44:42.719Z,0.00
2023-01-25T02:45:42.717Z,0.00
2023-01-25T02:46:42.723Z,0.00
2023-01-25T02:47:42.684Z,0.00
2023-01-25T02:48:42.679Z,0.00
2023-01-25T02:49:42.686Z,0.00
2023-01-25T02:50:42.692Z,0.00
2023-01-25T02:51:42.652Z,0.00
2023-01-25T02:52:42.644Z,0.00
2023-01-25T02:53:42.630Z,0.00
2023-01-25T02:54:42.617Z,0.00
2023-01-25T02:55:42.628Z,0.00
2023-01-25T02:56:48.614Z,0.00
2023-01-25T02:57:42.587Z,0.00
2023-01-25T02:58:42.575Z,0.00
2023-01-25T02:59:42.576Z,0.00
2023-01-25T03:00:42.560Z,0.00
2023-01-25T03:02:31.483Z,0.00
2023-01-25T03:03:37.396Z,0.00
2023-01-25T03:04:31.369Z,0.00
2023-01-25T03:05:31.361Z,0.00
2023-01-25T03:06:31.347Z,0.00
2023-01-25T03:07:31.346Z,0.00
2023-01-25T03:08:31.323Z,0.00
2023-01-25T03:09:31.321Z,0.00
2023-01-25T03:10:31.298Z,0.00
2023-01-25T03:11:31.715Z,0.00
2023-01-25T03:12:31.284Z,0.00
2023-01-25T03:13:31.280Z,0.00
2023-01-25T03:14:37.272Z,0.00
2023-01-25T03:15:31.464Z,0.00
2023-01-25T03:16:31.339Z,0.00
2023-01-25T03:17:31.239Z,0.00
2023-01-25T03:18:31.249Z,0.00
2023-01-25T03:19:31.210Z,0.00
2023-01-25T03:20:31.218Z,0.00
2023-01-25T03:21:31.200Z,0.00
2023-01-25T03:22:37.213Z,0.00
2023-01-25T03:23:37.177Z,0.00
2023-01-25T03:24:31.210Z,0.00
2023-01-25T03:25:31.162Z,0.00
2023-01-25T03:26:31.198Z,0.00
2023-01-25T03:27:31.127Z,0.00
2023-01-25T03:28:31.120Z,0.00
2023-01-25T03:29:31.115Z,0.00
2023-01-25T03:30:31.296Z,0.00
2023-01-25T03:31:31.176Z,0.00
2023-01-25T03:32:31.396Z,0.00
2023-01-25T03:34:11.897Z,0.00
2023-01-25T03:35:11.877Z,0.00
2023-01-25T03:36:11.980Z,0.00
2023-01-25T03:37:11.865Z,0.00
2023-01-25T03:38:12.044Z,0.00
2023-01-25T03:39:11.838Z,0.00
2023-01-25T03:40:11.825Z,0.00
2023-01-25T03:41:17.822Z,0.00
2023-01-25T03:42:11.803Z,0.00
2023-01-25T03:43:11.789Z,0.00
2023-01-25T03:44:11.801Z,0.00
2023-01-25T03:45:12.145Z,0.00
2023-01-25T03:46:11.764Z,0.00
2023-01-25T03:47:11.829Z,0.00
2023-01-25T03:48:11.729Z,0.00
2023-01-25T03:49:11.739Z,0.00
2023-01-25T03:50:17.761Z,0.00
2023-01-25T03:51:11.734Z,0.00
2023-01-25T03:52:11.720Z,0.00
2023-01-25T03:53:11.702Z,0.00
2023-01-25T03:54:11.704Z,0.00
2023-01-25T03:55:11.929Z,0.00
2023-01-25T03:56:11.665Z,0.00
2023-01-25T03:57:11.644Z,0.00
2023-01-25T03:58:11.673Z,0.00
2023-01-25T03:59:11.635Z,0.00
2023-01-25T04:00:11.615Z,0.00
2023-01-25T04:01:11.669Z,0.00
2023-01-25T04:02:11.869Z,0.00
2023-01-25T04:03:11.592Z,0.00
2023-01-25T04:04:11.577Z,0.00
2023-01-25T04:05:11.614Z,0.00
2023-01-25T04:06:11.571Z,0.00
2023-01-25T04:07:17.568Z,0.00
2023-01-25T04:08:11.542Z,0.00
2023-01-25T04:09:11.536Z,0.00
2023-01-25T04:10:17.532Z,0.00
2023-01-25T04:11:11.525Z,0.00
2023-01-25T04:12:11.499Z,0.00
2023-01-25T04:13:11.481Z,0.00
2023-01-25T04:14:11.463Z,0.00
2023-01-25T04:15:17.478Z,0.00
2023-01-25T04:16:11.472Z,0.00
2023-01-25T04:17:11.436Z,0.00
2023-01-25T04:18:17.439Z,0.00
2023-01-25T04:19:11.417Z,0.00
2023-01-25T04:20:11.413Z,0.00
2023-01-25T04:21:17.444Z,0.00
2023-01-25T04:22:11.390Z,0.00
2023-01-25T04:23:11.590Z,0.00
2023-01-25T04:24:11.426Z,0.00
2023-01-25T04:25:11.763Z,0.00
2023-01-25T04:26:13.403Z,0.00
2023-01-25T04:27:11.349Z,0.00
2023-01-25T04:28:11.326Z,0.00
2023-01-25T04:29:11.327Z,0.00
2023-01-25T04:30:11.312Z,0.00
2023-01-25T04:31:11.311Z,0.00
2023-01-25T04:32:11.358Z,0.00
2023-01-25T04:33:11.276Z,0.00
2023-01-25T04:34:11.482Z,0.00
2023-01-25T04:35:11.708Z,0.00
2023-01-25T04:36:11.258Z,0.00
2023-01-25T04:37:11.267Z,0.00
2023-01-25T04:38:11.238Z,0.00
2023-01-25T04:39:11.213Z,0.00
2023-01-25T04:40:11.204Z,0.00
2023-01-25T04:41:11.396Z,0.00
2023-01-25T04:42:11.192Z,0.00
2023-01-25T04:43:11.184Z,0.00
2023-01-25T04:44:17.173Z,0.00
2023-01-25T04:45:11.573Z,0.00
2023-01-25T04:46:11.238Z,0.00
2023-01-25T04:47:11.143Z,0.00
2023-01-25T04:48:11.127Z,0.00
2023-01-25T04:49:11.111Z,0.00
2023-01-25T04:50:11.108Z,0.00
2023-01-25T04:51:11.126Z,0.00
2023-01-25T04:52:11.071Z,0.00
2023-01-25T04:53:11.125Z,0.00
2023-01-25T04:54:11.079Z,0.00
2023-01-25T04:55:11.413Z,0.00
2023-01-25T04:56:11.039Z,0.00
2023-01-25T04:57:11.033Z,0.00
2023-01-25T04:58:11.030Z,0.00
2023-01-25T04:59:17.032Z,0.00
2023-01-25T05:00:11.016Z,0.00
2023-01-25T05:01:11.027Z,0.00
2023-01-25T05:02:10.997Z,0.00
2023-01-25T05:03:16.988Z,0.00
2023-01-25T05:04:10.950Z,0.00
2023-01-25T05:05:11.357Z,0.00
2023-01-25T05:06:10.943Z,0.00
2023-01-25T05:07:10.937Z,0.00
2023-01-25T05:08:10.918Z,0.00
2023-01-25T05:09:10.981Z,0.00
2023-01-25T05:10:16.902Z,0.00
2023-01-25T05:11:10.885Z,0.00
2023-01-25T05:12:10.873Z,0.00
2023-01-25T05:13:10.877Z,0.00
2023-01-25T05:14:11.052Z,0.00
2023-01-25T05:15:11.285Z,0.00
2023-01-25T05:16:16.919Z,0.00
2023-01-25T05:17:10.827Z,0.00
2023-01-25T05:18:10.813Z,0.00
2023-01-25T05:19:16.812Z,0.00
2023-01-25T05:20:10.821Z,0.00
2023-01-25T05:21:10.777Z,0.00
2023-01-25T05:22:10.772Z,0.00
2023-01-25T05:23:12.819Z,0.00
2023-01-25T05:24:10.815Z,0.00
2023-01-25T05:25:11.261Z,0.00
2023-01-25T05:26:10.736Z,0.00
2023-01-25T05:27:10.730Z,0.00
2023-01-25T05:28:10.708Z,0.00
2023-01-25T05:29:10.707Z,0.00
2023-01-25T05:30:10.689Z,0.00
2023-01-25T05:31:10.775Z,0.00
2023-01-25T05:32:10.787Z,0.00
2023-01-25T05:33:10.869Z,0.00
2023-01-25T05:34:10.657Z,0.00
2023-01-25T05:35:11.262Z,0.00
2023-01-25T05:36:10.625Z,0.00
2023-01-25T05:37:10.623Z,0.00
2023-01-25T05:38:10.616Z,0.00
2023-01-25T05:39:10.602Z,0.00
2023-01-25T05:40:10.591Z,0.00
2023-01-25T05:41:10.713Z,0.00
2023-01-25T05:42:10.570Z,0.00
2023-01-25T05:43:10.765Z,0.00
2023-01-25T05:44:10.547Z,0.00
2023-01-25T05:45:10.920Z,0.00
2023-01-25T05:46:10.615Z,0.00
2023-01-25T05:47:10.529Z,0.00
2023-01-25T05:48:10.504Z,0.00
2023-01-25T05:49:10.498Z,0.00
2023-01-25T05:50:10.480Z,0.00
2023-01-25T05:51:10.520Z,0.00
2023-01-25T05:52:10.464Z,0.00
2023-01-25T05:53:10.461Z,0.00
2023-01-25T05:54:10.441Z,0.00
2023-01-25T05:55:13.187Z,0.00
2023-01-25T05:56:10.417Z,0.00
2023-01-25T05:57:10.438Z,0.00
2023-01-25T05:58:16.407Z,0.00
2023-01-25T05:59:10.393Z,0.00
2023-01-25T06:00:10.381Z,0.00
2023-01-25T06:01:10.381Z,0.00
2023-01-25T06:02:16.575Z,0.00
2023-01-25T06:03:10.537Z,0.00
2023-01-25T06:04:10.337Z,0.00
2023-01-25T06:05:10.785Z,0.00
2023-01-25T06:06:10.334Z,0.00
2023-01-25T06:07:10.309Z,0.00
2023-01-25T06:08:10.404Z,0.00
2023-01-25T06:09:10.300Z,0.00
2023-01-25T06:10:10.306Z,0.00
2023-01-25T06:11:10.277Z,0.00
2023-01-25T06:12:10.256Z,0.00
2023-01-25T06:13:16.280Z,0.00
2023-01-25T06:14:10.240Z,0.00
2023-01-25T06:15:10.707Z,0.00
2023-01-25T06:16:10.348Z,0.00
2023-01-25T06:17:10.210Z,0.00
2023-01-25T06:18:10.198Z,0.00
2023-01-25T06:19:16.199Z,0.00
2023-01-25T06:20:10.181Z,0.00
2023-01-25T06:21:10.166Z,0.00
2023-01-25T06:22:10.156Z,0.00
2023-01-25T06:23:10.349Z,0.00
2023-01-25T06:24:12.673Z,0.00
2023-01-25T06:25:54.937Z,0.00
2023-01-25T06:26:54.940Z,0.00
2023-01-25T06:27:54.950Z,0.00
2023-01-25T06:28:54.936Z,0.00
2023-01-25T06:29:54.901Z,0.00
2023-01-25T06:30:55.186Z,0.00
2023-01-25T06:31:55.095Z,0.00
2023-01-25T06:32:54.873Z,0.00
2023-01-25T06:33:54.883Z,0.00
2023-01-25T06:34:54.864Z,0.00
2023-01-25T06:35:54.839Z,0.00
2023-01-25T06:36:54.837Z,0.00
2023-01-25T06:38:00.843Z,0.00
2023-01-25T06:38:54.832Z,0.00
2023-01-25T06:39:55.011Z,0.00
2023-01-25T06:40:54.799Z,0.00
2023-01-25T06:41:54.782Z,0.00
2023-01-25T06:43:00.785Z,0.00
2023-01-25T06:43:54.760Z,0.00
2023-01-25T06:44:54.789Z,0.00
2023-01-25T06:45:54.939Z,0.00
2023-01-25T06:46:54.756Z,0.00
2023-01-25T06:47:54.720Z,0.00
2023-01-25T06:49:00.731Z,0.00
2023-01-25T06:49:54.650Z,0.00
2023-01-25T06:50:54.645Z,0.00
2023-01-25T06:51:54.709Z,0.00
2023-01-25T06:52:54.699Z,0.00
2023-01-25T06:54:00.635Z,0.00
2023-01-25T06:54:54.593Z,0.00
2023-01-25T06:55:54.591Z,0.00
2023-01-25T06:56:54.830Z,0.00
2023-01-25T06:57:54.577Z,0.00
2023-01-25T06:58:54.551Z,0.00
2023-01-25T06:59:54.539Z,0.00
2023-01-25T07:00:54.581Z,0.00
2023-01-25T07:01:54.812Z,0.00
2023-01-25T07:02:54.586Z,0.00
2023-01-25T07:03:54.506Z,0.00
2023-01-25T07:04:54.495Z,0.00
2023-01-25T07:05:54.488Z,0.00
2023-01-25T07:06:54.541Z,0.00
2023-01-25T07:07:54.480Z,0.00
2023-01-25T07:08:54.455Z,0.00
2023-01-25T07:10:00.509Z,0.00
2023-01-25T07:10:54.438Z,0.00
2023-01-25T07:11:54.623Z,0.00
2023-01-25T07:12:54.415Z,0.00
2023-01-25T07:14:00.423Z,0.00
2023-01-25T07:14:54.399Z,0.00
2023-01-25T07:16:00.414Z,0.00
2023-01-25T07:16:54.569Z,0.00
2023-01-25T07:17:54.364Z,0.00
2023-01-25T07:18:54.348Z,0.00
2023-01-25T07:19:54.333Z,0.00
2023-01-25T07:20:54.331Z,0.00
2023-01-25T07:21:54.312Z,0.00
2023-01-25T07:22:54.309Z,0.00
2023-01-25T07:24:00.354Z,0.00
2023-01-25T07:24:54.284Z,0.00
2023-01-25T07:25:54.283Z,0.00
2023-01-25T07:26:54.278Z,0.00
2023-01-25T07:27:54.259Z,0.00
2023-01-25T07:28:54.252Z,0.00
2023-01-25T07:29:54.241Z,0.00
2023-01-25T07:30:54.230Z,0.00
2023-01-25T07:31:54.290Z,5.62
2023-01-25T07:32:54.203Z,5.62
2023-01-25T07:33:54.198Z,5.62
2023-01-25T07:34:54.191Z,5.62
2023-01-25T07:35:54.174Z,5.62
2023-01-25T07:36:54.171Z,5.62
2023-01-25T07:38:00.367Z,5.62
2023-01-25T07:38:54.243Z,5.62
2023-01-25T07:39:54.132Z,5.62
2023-01-25T07:40:54.124Z,5.62
2023-01-25T07:41:54.104Z,5.62
2023-01-25T07:42:54.110Z,5.62
2023-01-25T07:43:54.090Z,5.62
2023-01-25T07:44:54.135Z,5.62
2023-01-25T07:45:54.077Z,5.62
2023-01-25T07:47:00.100Z,5.62
2023-01-25T07:47:54.059Z,5.62
2023-01-25T07:49:00.046Z,5.62
2023-01-25T07:49:54.235Z,5.62
2023-01-25T07:50:54.218Z,5.62
2023-01-25T07:51:54.234Z,5.62
2023-01-25T07:52:53.994Z,5.62
2023-01-25T07:53:54.209Z,5.62
2023-01-25T07:54:59.992Z,5.62
2023-01-25T07:55:54.174Z,11.25
2023-01-25T07:56:53.957Z,11.25
2023-01-25T07:57:53.946Z,11.25
2023-01-25T07:58:53.973Z,11.25
2023-01-25T07:59:53.926Z,11.25
2023-01-25T08:00:53.919Z,11.25
2023-01-25T08:01:53.909Z,11.25
2023-01-25T08:02:53.922Z,11.25
2023-01-25T08:03:53.888Z,11.25
2023-01-25T08:04:53.889Z,11.25
2023-01-25T08:05:53.873Z,11.25
2023-01-25T08:06:59.872Z,11.25
2023-01-25T08:07:53.852Z,11.25
2023-01-25T08:08:53.835Z,11.25
2023-01-25T08:09:53.829Z,11.25
2023-01-25T08:10:59.820Z,11.25
2023-01-25T08:11:53.829Z,11.25
2023-01-25T08:12:53.852Z,11.25
2023-01-25T08:14:34.560Z,16.87
2023-01-25T08:15:34.544Z,16.87
2023-01-25T08:16:34.525Z,16.87
2023-01-25T08:17:34.536Z,16.87
2023-01-25T08:18:36.564Z,16.87
2023-01-25T08:19:34.508Z,16.87
2023-01-25T08:20:40.506Z,16.87
2023-01-25T08:21:34.526Z,16.87
2023-01-25T08:22:34.476Z,16.87
2023-01-25T08:23:34.448Z,16.87
2023-01-25T08:24:34.523Z,16.87
2023-01-25T08:25:34.434Z,16.87
2023-01-25T08:26:34.436Z,22.50
2023-01-25T08:27:34.421Z,22.50
2023-01-25T08:28:34.528Z,22.50
2023-01-25T08:29:34.396Z,22.50
2023-01-25T08:30:34.389Z,22.50
2023-01-25T08:31:34.470Z,22.50
2023-01-25T08:32:34.517Z,22.50
2023-01-25T08:33:34.383Z,22.50
2023-01-25T08:34:34.369Z,22.50
2023-01-25T08:35:34.349Z,22.50
2023-01-25T08:36:34.346Z,28.12
2023-01-25T08:37:34.319Z,28.12
2023-01-25T08:38:40.317Z,28.12
2023-01-25T08:39:34.298Z,28.12
2023-01-25T08:40:37.128Z,28.12
2023-01-25T08:41:34.276Z,28.12
2023-01-25T08:42:34.269Z,28.12
2023-01-25T08:43:34.288Z,28.12
2023-01-25T08:44:34.352Z,28.12
2023-01-25T08:45:34.228Z,28.12
2023-01-25T08:46:34.241Z,28.12
2023-01-25T08:47:34.415Z,28.12
2023-01-25T08:48:40.234Z,28.12
2023-01-25T08:49:34.199Z,28.12
2023-01-25T08:50:34.214Z,28.12
2023-01-25T08:52:21.125Z,28.12
2023-01-25T08:53:18.934Z,28.12
2023-01-25T08:54:18.923Z,28.12
2023-01-25T08:55:20.968Z,28.12
2023-01-25T08:56:18.926Z,28.12
2023-01-25T08:57:18.890Z,28.12
2023-01-25T08:58:18.891Z,28.12
2023-01-25T08:59:24.878Z,28.12
2023-01-25T09:00:24.883Z,33.75
2023-01-25T09:01:18.882Z,33.75
2023-01-25T09:02:18.866Z,33.75
2023-01-25T09:03:18.860Z,33.75
2023-01-25T09:04:24.843Z,33.75
2023-01-25T09:05:18.807Z,33.75
2023-01-25T09:06:18.882Z,33.75
2023-01-25T09:07:18.789Z,39.37
2023-01-25T09:08:18.781Z,39.37
2023-01-25T09:09:18.769Z,39.37
2023-01-25T09:10:18.964Z,39.37
2023-01-25T09:11:18.977Z,39.37
2023-01-25T09:12:18.739Z,39.37
2023-01-25T09:13:18.740Z,39.37
2023-01-25T09:14:24.723Z,39.37
2023-01-25T09:15:18.707Z,39.37
2023-01-25T09:16:18.908Z,39.37
2023-01-25T09:17:24.899Z,39.37
2023-01-25T09:18:18.675Z,39.37
2023-01-25T09:19:18.667Z,45.00
2023-01-25T09:20:18.665Z,45.00
2023-01-25T09:21:18.873Z,45.00
2023-01-25T09:22:18.663Z,45.00
2023-01-25T09:23:18.634Z,45.00
2023-01-25T09:24:18.838Z,45.00
2023-01-25T09:25:18.602Z,45.00
2023-01-25T09:26:18.611Z,45.00
2023-01-25T09:27:18.581Z,45.00
2023-01-25T09:28:18.683Z,45.00
2023-01-25T09:29:24.572Z,45.00
2023-01-25T09:30:19.286Z,45.00
2023-01-25T09:31:22.364Z,50.62
2023-01-25T09:32:18.623Z,50.62
2023-01-25T09:33:18.579Z,50.62
2023-01-25T09:34:18.511Z,50.62
2023-01-25T09:35:18.501Z,50.62
2023-01-25T09:36:18.489Z,56.25
2023-01-25T09:37:18.477Z,56.25
2023-01-25T09:38:18.513Z,56.25
2023-01-25T09:39:18.560Z,56.25
2023-01-25T09:40:18.540Z,56.25
2023-01-25T09:41:18.436Z,56.25
2023-01-25T09:42:19.751Z,56.25
2023-01-25T09:43:18.411Z,56.25
2023-01-25T09:44:18.399Z,56.25
2023-01-25T09:45:18.391Z,61.87
2023-01-25T09:46:18.469Z,61.87
2023-01-25T09:47:18.369Z,61.87
2023-01-25T09:48:18.365Z,61.87
2023-01-25T09:49:18.354Z,61.87
2023-01-25T09:50:18.598Z,61.87
2023-01-25T09:51:24.353Z,56.25
2023-01-25T09:52:18.324Z,56.25
2023-01-25T09:53:18.315Z,56.25
2023-01-25T09:54:24.340Z,56.25
2023-01-25T09:55:18.297Z,56.25
2023-01-25T09:56:18.292Z,56.25
2023-01-25T09:57:24.283Z,56.25
2023-01-25T09:58:18.464Z,56.25
2023-01-25T09:59:18.246Z,56.25
2023-01-25T10:00:18.303Z,56.25
2023-01-25T10:01:21.710Z,56.25
2023-01-25T10:02:19.432Z,56.25
2023-01-25T10:03:18.210Z,56.25
2023-01-25T10:04:18.198Z,56.25
2023-01-25T10:05:18.198Z,56.25
2023-01-25T10:06:18.177Z,56.25
2023-01-25T10:07:24.180Z,61.87
2023-01-25T10:08:18.157Z,61.87
2023-01-25T10:09:18.151Z,61.87
2023-01-25T10:10:18.155Z,61.87
2023-01-25T10:11:18.243Z,61.87
2023-01-25T10:12:18.123Z,61.87
2023-01-25T10:13:18.102Z,61.87
2023-01-25T10:14:18.096Z,61.87
2023-01-25T10:15:18.102Z,61.87
2023-01-25T10:16:25.713Z,61.87
2023-01-25T10:17:18.160Z,61.87
2023-01-25T10:18:24.059Z,61.87
2023-01-25T10:19:18.049Z,61.87
2023-01-25T10:20:18.030Z,61.87
2023-01-25T10:21:18.025Z,61.87
2023-01-25T10:22:18.017Z,61.87
2023-01-25T10:23:18.003Z,61.87
2023-01-25T10:24:18.040Z,61.87
2023-01-25T10:25:17.983Z,61.87
2023-01-25T10:26:18.001Z,61.87
2023-01-25T10:27:17.955Z,61.87
2023-01-25T10:28:18.001Z,67.50
2023-01-25T10:29:17.942Z,67.50
2023-01-25T10:30:17.927Z,67.50
2023-01-25T10:31:18.096Z,67.50
2023-01-25T10:32:17.911Z,67.50
2023-01-25T10:33:17.899Z,73.12
2023-01-25T10:34:17.932Z,73.12
2023-01-25T10:35:33.437Z,73.12
2023-01-25T10:36:18.915Z,67.50
2023-01-25T10:37:17.855Z,67.50
2023-01-25T10:38:17.840Z,67.50
2023-01-25T10:39:17.834Z,67.50
2023-01-25T10:40:17.820Z,73.12
2023-01-25T10:41:17.821Z,67.50
2023-01-25T10:42:17.822Z,67.50
2023-01-25T10:43:17.785Z,73.12
2023-01-25T10:44:17.783Z,73.12
2023-01-25T10:45:17.973Z,73.12
2023-01-25T10:46:17.861Z,67.50
2023-01-25T10:47:17.757Z,67.50
2023-01-25T10:48:17.746Z,73.12
2023-01-25T10:49:17.736Z,73.12
2023-01-25T10:50:17.717Z,73.12
2023-01-25T10:51:17.713Z,73.12
2023-01-25T10:52:17.717Z,73.12
2023-01-25T10:53:17.693Z,73.12
2023-01-25T10:54:17.671Z,73.12
2023-01-25T10:55:23.682Z,73.12
2023-01-25T10:56:17.665Z,73.12
2023-01-25T10:57:17.649Z,73.12
2023-01-25T10:58:17.660Z,73.12
2023-01-25T10:59:17.640Z,73.12
2023-01-25T11:00:17.621Z,73.12
2023-01-25T11:01:17.848Z,73.12
2023-01-25T11:02:17.600Z,73.12
2023-01-25T11:03:17.585Z,67.50
2023-01-25T11:04:17.571Z,67.50
2023-01-25T11:05:17.560Z,67.50
2023-01-25T11:06:17.551Z,67.50
2023-01-25T11:07:17.536Z,67.50
2023-01-25T11:08:17.542Z,67.50
2023-01-25T11:09:17.528Z,67.50
2023-01-25T11:10:54.228Z,67.50
2023-01-25T11:11:54.611Z,67.50
2023-01-25T11:12:54.190Z,67.50
2023-01-25T11:13:54.222Z,67.50
2023-01-25T11:15:00.210Z,67.50
2023-01-25T11:15:54.228Z,67.50
2023-01-25T11:16:54.168Z,73.12
2023-01-25T11:17:54.348Z,73.12
2023-01-25T11:18:54.161Z,73.12
2023-01-25T11:19:54.139Z,73.12
2023-01-25T11:20:54.122Z,73.12
2023-01-25T11:21:54.136Z,73.12
2023-01-25T11:22:54.095Z,67.50
2023-01-25T11:23:54.171Z,67.50
2023-01-25T11:24:54.093Z,73.12
2023-01-25T11:25:54.068Z,73.12
2023-01-25T11:27:00.108Z,73.12
2023-01-25T11:28:00.137Z,67.50
2023-01-25T11:28:54.086Z,67.50
2023-01-25T11:29:54.137Z,73.12
2023-01-25T11:30:54.163Z,73.12
2023-01-25T11:31:54.063Z,73.12
2023-01-25T11:32:54.048Z,73.12
2023-01-25T11:33:54.037Z,78.75
2023-01-25T11:34:54.025Z,78.75
2023-01-25T11:35:54.059Z,84.37
2023-01-25T11:36:53.979Z,78.75
2023-01-25T11:37:53.998Z,78.75
2023-01-25T11:38:53.957Z,84.37
2023-01-25T11:40:00.041Z,84.37
2023-01-25T11:40:54.009Z,84.37
2023-01-25T11:41:53.917Z,84.37
2023-01-25T11:43:30.963Z,84.37
2023-01-25T11:44:30.866Z,78.75
2023-01-25T11:45:31.113Z,73.12
2023-01-25T11:46:30.907Z,73.12
2023-01-25T11:47:30.835Z,73.12
2023-01-25T11:48:30.861Z,78.75
2023-01-25T11:49:30.814Z,78.75
2023-01-25T11:50:30.812Z,78.75
2023-01-25T11:51:30.778Z,78.75
2023-01-25T11:52:30.880Z,78.75
2023-01-25T11:53:30.772Z,84.37
2023-01-25T11:54:30.758Z,78.75
2023-01-25T11:55:30.730Z,78.75
2023-01-25T11:56:30.761Z,73.12
2023-01-25T11:57:30.730Z,73.12
2023-01-25T11:58:30.701Z,73.12
2023-01-25T11:59:30.736Z,73.12
2023-01-25T12:00:30.750Z,73.12
2023-01-25T12:01:30.757Z,67.50
2023-01-25T12:02:30.727Z,67.50
2023-01-25T12:03:36.897Z,67.50
2023-01-25T12:04:36.866Z,67.50
2023-01-25T12:05:30.671Z,67.50
2023-01-25T12:06:30.634Z,67.50
2023-01-25T12:07:30.686Z,67.50
2023-01-25T12:08:32.898Z,67.50
2023-01-25T12:09:30.867Z,67.50
2023-01-25T12:10:30.585Z,67.50
2023-01-25T12:11:30.587Z,67.50
2023-01-25T12:12:30.585Z,67.50
2023-01-25T12:13:30.643Z,67.50
2023-01-25T12:14:30.534Z,67.50
2023-01-25T12:15:30.552Z,73.12
2023-01-25T12:16:30.556Z,73.12
2023-01-25T12:17:30.547Z,73.12
2023-01-25T12:18:30.528Z,67.50
2023-01-25T12:19:30.524Z,67.50
2023-01-25T12:20:36.540Z,67.50
2023-01-25T12:21:31.537Z,67.50
2023-01-25T12:22:30.470Z,73.12
2023-01-25T12:23:30.521Z,73.12
2023-01-25T12:24:30.457Z,73.12
2023-01-25T12:25:30.465Z,73.12
2023-01-25T12:26:30.449Z,73.12
2023-01-25T12:27:30.427Z,67.50
2023-01-25T12:28:30.424Z,67.50
2023-01-25T12:29:30.427Z,67.50
2023-01-25T12:30:30.470Z,67.50
2023-01-25T12:31:36.539Z,73.12
2023-01-25T12:32:36.445Z,73.12
2023-01-25T12:33:30.388Z,73.12
2023-01-25T12:34:30.332Z,73.12
2023-01-25T12:35:30.550Z,73.12
2023-01-25T12:37:27.562Z,0.00
2023-01-25T12:38:27.532Z,0.00
2023-01-25T12:39:27.545Z,0.00
2023-01-25T12:40:27.520Z,0.00
2023-01-25T12:41:27.507Z,0.00
2023-01-25T12:42:27.476Z,0.00
2023-01-25T12:43:27.677Z,0.00
2023-01-25T12:44:27.482Z,0.00
2023-01-25T12:45:27.467Z,0.00
2023-01-25T12:46:27.451Z,0.00
2023-01-25T12:47:27.512Z,0.00
2023-01-25T12:48:27.433Z,0.00
2023-01-25T12:49:27.398Z,0.00
2023-01-25T12:50:27.400Z,0.00
2023-01-25T12:51:33.627Z,0.00
2023-01-25T12:52:33.467Z,0.00
2023-01-25T12:53:27.440Z,0.00
2023-01-25T12:54:33.406Z,0.00
2023-01-25T12:55:27.352Z,0.00
2023-01-25T12:56:33.573Z,0.00
2023-01-25T12:57:27.315Z,0.00
2023-01-25T12:58:37.323Z,0.00
2023-01-25T12:59:28.396Z,0.00
2023-01-25T13:00:27.341Z,0.00
2023-01-25T13:01:27.296Z,0.00
2023-01-25T13:02:27.313Z,0.00
2023-01-25T13:03:27.302Z,0.00
2023-01-25T13:04:27.325Z,0.00
2023-01-25T13:05:27.214Z,0.00
2023-01-25T13:06:27.239Z,0.00
2023-01-25T13:07:27.220Z,0.00
2023-01-25T13:08:32.215Z,0.00
2023-01-25T13:09:27.195Z,0.00
2023-01-25T13:10:27.194Z,0.00
2023-01-25T13:11:33.209Z,0.00
2023-01-25T13:12:33.292Z,0.00
2023-01-25T13:13:27.188Z,0.00
2023-01-25T13:14:27.150Z,0.00
2023-01-25T13:15:27.183Z,0.00
2023-01-25T13:16:27.261Z,0.00
2023-01-25T13:17:27.124Z,0.00